Time;durP1;ratioP1;P1;durP2;ratioP2;P2;SDS_P1;SDS_P2;PMS_P1;PMS_P2;Temp;Humidity;BMP_temperature;BMP_pressure;BME280_temperature;BME280_humidity;BME280_pressure;Samples;Min_cycle;Max_cycle;Signal;HPM_P1;HPM_P2
2020/12/06 00:01:26;;;;;;;7.37;4.03;;;;;;;-0.12;62.11;102183.78;1751592;82;21146;-59
2020/12/06 00:03:55;;;;;;;5.90;3.73;;;;;;;-0.19;62.60;102180.03;1751610;82;21143;-59
2020/12/06 00:06:22;;;;;;;7.43;3.90;;;;;;;-0.20;62.95;102181.03;1751623;80;21507;-58
2020/12/06 00:08:50;;;;;;;7.47;4.13;;;;;;;-0.20;62.67;102194.88;1751613;82;21439;-59
2020/12/06 00:11:18;;;;;;;6.70;3.60;;;;;;;-0.18;62.62;102189.73;1751558;82;21012;-58
2020/12/06 00:13:46;;;;;;;8.87;4.07;;;;;;;-0.20;62.47;102189.52;1751666;82;21585;-57
2020/12/06 00:16:15;;;;;;;5.87;3.25;;;;;;;-0.22;61.89;102186.17;1751561;80;20929;-60
2020/12/06 00:18:44;;;;;;;7.60;4.27;;;;;;;-0.28;61.82;102191.12;1751649;82;20945;-59
2020/12/06 00:21:18;;;;;;;8.47;3.63;;;;;;;-0.29;61.94;102195.30;1751729;82;22263;-62
2020/12/06 00:23:46;;;;;;;7.47;3.87;;;;;;;-0.33;61.79;102189.89;1751683;80;21498;-61
2020/12/06 00:26:15;;;;;;;6.57;3.00;;;;;;;-0.38;61.83;102182.31;1753080;81;21040;-62
2020/12/06 00:28:42;;;;;;;6.23;3.33;;;;;;;-0.39;61.97;102184.64;1760512;81;21486;-63
2020/12/06 00:31:11;;;;;;;6.23;3.40;;;;;;;-0.38;61.64;102185.48;1760467;80;20952;-62
2020/12/06 00:33:39;;;;;;;10.77;4.03;;;;;;;-0.40;61.76;102180.29;1760484;81;21207;-62
2020/12/06 00:36:10;;;;;;;7.70;3.27;;;;;;;-0.39;61.93;102189.99;1760371;80;21171;-61
2020/12/06 00:38:38;;;;;;;6.57;3.63;;;;;;;-0.39;61.78;102186.48;1760450;81;20992;-61
2020/12/06 00:41:05;;;;;;;6.27;3.23;;;;;;;-0.45;61.45;102189.25;1760363;81;21075;-61
2020/12/06 00:43:33;;;;;;;8.77;3.57;;;;;;;-0.51;61.49;102197.84;1760466;81;21019;-61
2020/12/06 00:46:01;;;;;;;6.00;2.57;;;;;;;-0.58;61.99;102202.10;1760468;81;21328;-61
2020/12/06 00:48:29;;;;;;;7.47;3.17;;;;;;;-0.60;62.05;102212.95;1760546;81;20996;-59
2020/12/06 00:50:57;;;;;;;6.17;2.97;;;;;;;-0.61;62.07;102211.74;1760674;80;20996;-61
2020/12/06 00:53:25;;;;;;;6.27;3.27;;;;;;;-0.63;61.98;102221.75;1760578;81;20932;-60
2020/12/06 00:55:53;;;;;;;8.17;3.20;;;;;;;-0.69;62.20;102196.95;1760594;80;21495;-60
2020/12/06 00:58:21;;;;;;;5.27;3.50;;;;;;;-0.71;61.96;102204.25;1760626;80;21214;-61
2020/12/06 01:00:49;;;;;;;8.90;4.07;;;;;;;-0.81;62.26;102205.65;1760538;81;20984;-62
2020/12/06 01:03:16;;;;;;;8.23;3.43;;;;;;;-0.84;62.40;102213.94;1760624;81;21619;-62
2020/12/06 01:05:44;;;;;;;7.13;2.73;;;;;;;-0.81;62.22;102206.98;1760522;81;21063;-60
2020/12/06 01:08:12;;;;;;;5.17;3.03;;;;;;;-0.81;62.24;102206.48;1760566;80;20952;-59
2020/12/06 01:10:41;;;;;;;5.97;2.97;;;;;;;-0.90;62.36;102218.53;1760548;81;21000;-59
2020/12/06 01:13:09;;;;;;;7.70;3.33;;;;;;;-0.97;62.68;102202.71;1760532;81;21146;-63
2020/12/06 01:15:37;;;;;;;8.03;3.13;;;;;;;-1.02;62.47;102203.14;1760543;81;21134;-61
2020/12/06 01:18:04;;;;;;;6.93;3.33;;;;;;;-1.03;62.59;102204.62;1760553;81;20932;-60
2020/12/06 01:20:32;;;;;;;8.00;2.67;;;;;;;-1.00;62.59;102194.51;1760605;80;21505;-61
2020/12/06 01:22:59;;;;;;;6.43;3.20;;;;;;;-0.99;62.51;102202.03;1760561;81;21153;-63
2020/12/06 01:25:27;;;;;;;7.97;3.50;;;;;;;-0.98;62.44;102206.37;1760467;81;21036;-61
2020/12/06 01:27:55;;;;;;;7.13;3.60;;;;;;;-0.99;62.44;102208.70;1753886;81;21063;-62
2020/12/06 01:30:23;;;;;;;9.00;4.40;;;;;;;-0.99;62.31;102210.04;1751794;82;20957;-62
2020/12/06 01:32:51;;;;;;;6.70;3.50;;;;;;;-1.02;62.28;102209.82;1751759;80;20901;-61
2020/12/06 01:35:18;;;;;;;5.87;2.87;;;;;;;-0.99;62.14;102210.04;1751636;82;21200;-61
2020/12/06 01:37:45;;;;;;;5.33;3.30;;;;;;;-1.00;62.20;102217.22;1751661;81;20957;-61
2020/12/06 01:40:13;;;;;;;5.70;2.90;;;;;;;-1.05;61.94;102214.13;1751689;82;21505;-61
2020/12/06 01:42:41;;;;;;;8.23;3.40;;;;;;;-1.11;62.13;102210.70;1751682;80;21522;-60
2020/12/06 01:45:08;;;;;;;6.77;3.57;;;;;;;-1.15;62.71;102208.80;1751675;80;21004;-60
2020/12/06 01:47:36;;;;;;;6.73;2.97;;;;;;;-1.14;62.71;102211.82;1751715;80;22369;-59
2020/12/06 01:50:03;;;;;;;6.43;3.20;;;;;;;-1.10;62.71;102214.56;1751592;80;20909;-59
2020/12/06 01:52:31;;;;;;;9.73;2.60;;;;;;;-1.11;62.70;102210.21;1751673;82;21083;-61
2020/12/06 01:54:59;;;;;;;8.17;3.77;;;;;;;-1.10;62.70;102210.55;1751684;80;20989;-61
2020/12/06 01:57:28;;;;;;;7.07;3.27;;;;;;;-1.13;62.57;102204.64;1751751;82;21000;-59
2020/12/06 01:59:55;;;;;;;5.37;2.80;;;;;;;-1.10;62.57;102205.70;1751708;82;21376;-59
2020/12/06 02:02:24;;;;;;;6.50;3.43;;;;;;;-1.09;62.44;102203.37;1751568;82;20957;-57
2020/12/06 02:04:52;;;;;;;5.73;3.07;;;;;;;-1.10;62.93;102217.73;1751701;82;21091;-58
2020/12/06 02:07:19;;;;;;;8.47;3.87;;;;;;;-1.07;62.81;102213.41;1751659;82;21539;-58
2020/12/06 02:09:47;;;;;;;10.20;4.33;;;;;;;-1.08;63.25;102209.91;1751677;82;21152;-58
2020/12/06 02:12:14;;;;;;;12.17;4.90;;;;;;;-1.02;63.60;102216.50;1751775;80;22088;-58
2020/12/06 02:14:43;;;;;;;8.53;4.37;;;;;;;-0.88;63.56;102220.55;1751632;81;20960;-59
2020/12/06 02:17:11;;;;;;;7.53;4.63;;;;;;;-0.73;63.45;102226.29;1751696;80;20981;-59
2020/12/06 02:19:39;;;;;;;11.10;4.63;;;;;;;-0.61;63.17;102221.97;1751662;82;21606;-59
2020/12/06 02:22:08;;;;;;;8.53;3.93;;;;;;;-0.52;62.86;102217.55;1751736;82;21118;-59
2020/12/06 02:24:35;;;;;;;9.70;4.70;;;;;;;-0.45;62.24;102225.85;1751823;82;22095;-60
2020/12/06 02:27:03;;;;;;;8.73;4.57;;;;;;;-0.49;62.20;102223.95;1751624;81;21033;-60
2020/12/06 02:29:31;;;;;;;7.90;3.80;;;;;;;-0.46;62.02;102225.48;1752486;81;20889;-60
2020/12/06 02:32:00;;;;;;;9.47;4.40;;;;;;;-0.51;61.70;102241.96;1752452;81;20949;-60
2020/12/06 02:34:28;;;;;;;9.50;4.33;;;;;;;-0.65;61.57;102236.61;1752498;81;21543;-60
2020/12/06 02:36:56;;;;;;;7.60;3.90;;;;;;;-0.73;61.87;102237.81;1752448;81;21856;-61
2020/12/06 02:39:25;;;;;;;8.10;4.50;;;;;;;-0.70;61.79;102241.55;1752404;81;20949;-62
2020/12/06 02:41:53;;;;;;;9.47;3.77;;;;;;;-0.71;61.73;102233.66;1752441;81;21072;-62
2020/12/06 02:44:21;;;;;;;8.23;4.13;;;;;;;-0.70;61.39;102236.20;1752439;80;21107;-61
2020/12/06 02:46:49;;;;;;;7.20;3.80;;;;;;;-0.78;61.30;102237.41;1752442;81;21127;-60
2020/12/06 02:49:16;;;;;;;6.20;3.57;;;;;;;-0.85;61.33;102231.81;1752490;81;21202;-60
2020/12/06 02:51:43;;;;;;;4.47;2.70;;;;;;;-0.99;61.50;102228.25;1752470;80;20941;-61
2020/12/06 02:54:11;;;;;;;7.93;4.30;;;;;;;-1.12;61.75;102230.36;1752444;81;21060;-61
2020/12/06 02:56:40;;;;;;;8.57;4.20;;;;;;;-1.28;62.13;102232.28;1752246;81;21135;-58
2020/12/06 02:59:09;;;;;;;7.07;4.20;;;;;;;-1.27;62.47;102228.62;1752425;81;21074;-60
2020/12/06 03:01:38;;;;;;;6.47;3.70;;;;;;;-1.20;62.37;102228.92;1752492;81;22231;-58
2020/12/06 03:04:05;;;;;;;7.47;3.67;;;;;;;-1.16;62.36;102227.66;1752431;80;20949;-61
2020/12/06 03:06:33;;;;;;;8.63;3.97;;;;;;;-1.11;62.42;102226.23;1752407;81;21088;-59
2020/12/06 03:09:01;;;;;;;5.73;3.27;;;;;;;-1.08;62.25;102225.94;1752425;81;21063;-58
2020/12/06 03:11:28;;;;;;;7.37;3.50;;;;;;;-1.11;62.07;102227.58;1752443;81;21134;-57
2020/12/06 03:13:57;;;;;;;6.93;4.00;;;;;;;-1.19;62.26;102234.11;1752432;81;21571;-57
2020/12/06 03:16:25;;;;;;;9.53;3.97;;;;;;;-1.23;62.44;102240.71;1752435;81;20960;-58
2020/12/06 03:18:52;;;;;;;7.47;4.13;;;;;;;-1.24;62.48;102238.19;1752439;81;21075;-60
2020/12/06 03:21:20;;;;;;;6.00;3.83;;;;;;;-1.20;62.32;102232.92;1752425;81;21016;-60
2020/12/06 03:23:47;;;;;;;10.90;4.00;;;;;;;-1.16;62.06;102237.00;1752430;80;21161;-60
2020/12/06 03:26:15;;;;;;;5.93;3.17;;;;;;;-1.19;61.88;102248.80;1752400;81;21202;-60
2020/12/06 03:28:43;;;;;;;7.03;3.77;;;;;;;-1.23;61.90;102243.38;1751606;81;21484;-60
2020/12/06 03:31:11;;;;;;;7.37;3.77;;;;;;;-1.29;61.82;102241.28;1751723;80;21108;-59
2020/12/06 03:33:38;;;;;;;7.40;3.47;;;;;;;-1.35;61.88;102244.53;1751586;82;21114;-59
2020/12/06 03:36:06;;;;;;;8.40;3.53;;;;;;;-1.36;61.91;102246.36;1751601;80;21167;-60
2020/12/06 03:38:34;;;;;;;7.90;3.43;;;;;;;-1.35;62.03;102241.85;1751632;82;21316;-59
2020/12/06 03:41:01;;;;;;;3.80;2.80;;;;;;;-1.33;61.85;102245.22;1751588;82;20945;-61
2020/12/06 03:43:29;;;;;;;7.83;3.07;;;;;;;-1.33;61.73;102255.89;1751589;80;20996;-60
2020/12/06 03:45:57;;;;;;;8.43;3.53;;;;;;;-1.30;61.75;102255.62;1751542;82;21162;-61
2020/12/06 03:48:25;;;;;;;6.77;3.07;;;;;;;-1.24;61.71;102259.56;1751744;82;20949;-61
2020/12/06 03:50:54;;;;;;;6.50;3.10;;;;;;;-1.22;61.58;102260.25;1751672;80;21554;-61
2020/12/06 03:53:22;;;;;;;6.03;3.50;;;;;;;-1.22;61.55;102266.92;1751562;82;21484;-59
2020/12/06 03:55:49;;;;;;;6.03;3.07;;;;;;;-1.24;61.75;102265.73;1751618;82;20993;-60
2020/12/06 03:58:17;;;;;;;5.90;3.33;;;;;;;-1.26;61.84;102258.88;1751587;82;21111;-60
2020/12/06 04:00:46;;;;;;;4.13;2.43;;;;;;;-1.24;61.62;102260.89;1751659;80;20948;-61
2020/12/06 04:03:13;;;;;;;5.50;3.50;;;;;;;-1.20;61.13;102262.30;1751598;81;21199;-58
2020/12/06 04:05:42;;;;;;;6.57;3.43;;;;;;;-1.24;61.10;102265.73;1751523;82;21532;-58
2020/12/06 04:08:10;;;;;;;6.67;3.03;;;;;;;-1.17;60.88;102261.51;1751711;80;21554;-58
2020/12/06 04:10:38;;;;;;;6.83;3.60;;;;;;;-1.20;60.73;102262.30;1751523;82;21004;-58
2020/12/06 04:13:06;;;;;;;5.30;2.17;;;;;;;-1.27;60.76;102266.02;1751603;82;21096;-59
2020/12/06 04:15:34;;;;;;;6.50;3.03;;;;;;;-1.32;60.70;102259.78;1751708;80;22146;-58
2020/12/06 04:18:02;;;;;;;5.20;2.80;;;;;;;-1.44;61.00;102265.39;1751556;80;21082;-59
2020/12/06 04:20:30;;;;;;;5.57;2.90;;;;;;;-1.49;61.20;102266.30;1722522;82;21012;-61
2020/12/06 04:22:58;;;;;;;4.50;2.90;;;;;;;-1.56;61.28;102275.36;1751562;82;21147;-59
2020/12/06 04:25:27;;;;;;;6.90;3.43;;;;;;;-1.66;61.56;102271.84;1751578;80;21024;-59
2020/12/06 04:27:54;;;;;;;5.27;2.60;;;;;;;-1.69;62.02;102268.09;1753856;81;23524;-61
2020/12/06 04:30:22;;;;;;;5.90;3.17;;;;;;;-1.69;62.27;102271.61;1760358;80;21479;-60
2020/12/06 04:32:50;;;;;;;6.07;3.37;;;;;;;-1.70;62.41;102275.27;1760444;81;20996;-60
2020/12/06 04:35:18;;;;;;;6.40;3.43;;;;;;;-1.68;62.46;102277.78;1760399;81;21146;-60
2020/12/06 04:37:46;;;;;;;4.90;2.90;;;;;;;-1.64;62.57;102282.71;1760444;81;21082;-60
2020/12/06 04:41:47;;;;;;;4.87;2.60;;;;;;;-1.61;62.43;102274.94;1816110;79;22994;-59
2020/12/06 04:44:15;;;;;;;5.13;3.00;;;;;;;-1.69;62.55;102284.95;1789292;80;21515;-57
2020/12/06 04:46:43;;;;;;;8.70;3.40;;;;;;;-1.74;62.77;102288.52;1789165;80;21892;-58
2020/12/06 04:49:45;;;;;;;7.20;3.40;;;;;;;-1.69;62.83;102290.78;1758872;80;21028;-59
2020/12/06 04:52:19;;;;;;;5.43;2.87;;;;;;;-1.67;62.81;102284.34;1789178;80;20941;-59
2020/12/06 04:54:58;;;;;;;2.37;1.32;;;;;;;-1.55;62.73;102287.72;1789289;80;21064;-58
2020/12/06 04:57:29;;;;;;;6.43;3.63;;;;;;;-1.46;62.26;102288.72;1789155;80;20926;-58
2020/12/06 05:00:08;;;;;;;6.23;3.20;;;;;;;-1.45;62.27;102287.73;1789147;79;21368;-57
2020/12/06 05:02:44;;;;;;;5.63;3.13;;;;;;;-1.39;61.97;102276.00;1888660;75;22738;-58
2020/12/06 05:05:14;;;;;;;6.33;3.03;;;;;;;-1.39;61.99;102276.49;1718608;80;21515;-58
2020/12/06 05:07:44;;;;;;;7.13;3.20;;;;;;;-1.36;61.69;102278.89;1849862;77;21346;-59
2020/12/06 05:10:12;;;;;;;5.97;2.70;;;;;;;-1.40;61.62;102274.31;1836962;77;20930;-56
2020/12/06 05:12:40;;;;;;;7.17;3.80;;;;;;;-1.42;61.40;102273.63;1816564;79;21445;-55
2020/12/06 05:15:08;;;;;;;8.10;4.57;;;;;;;-1.47;61.41;102277.66;1816564;79;20988;-59
2020/12/06 05:17:35;;;;;;;8.67;4.37;;;;;;;-1.54;61.54;102282.73;1816549;79;20992;-59
2020/12/06 05:20:10;;;;;;;8.90;4.70;;;;;;;-1.55;61.50;102284.21;1787696;79;22298;-59
2020/12/06 05:22:47;;;;;;;10.63;5.10;;;;;;;-1.59;61.66;102287.64;1816484;79;21009;-60
2020/12/06 05:25:15;;;;;;;17.37;7.87;;;;;;;-1.50;61.41;102291.31;1816574;79;20989;-60
2020/12/06 05:27:43;;;;;;;16.10;7.20;;;;;;;-1.47;61.16;102295.89;1816582;79;20944;-60
2020/12/06 05:30:12;;;;;;;18.20;7.57;;;;;;;-1.43;60.68;102286.59;1816557;79;21484;-62
2020/12/06 05:32:39;;;;;;;13.73;6.57;;;;;;;-1.48;60.77;102296.01;1816562;79;21791;-61
2020/12/06 05:35:08;;;;;;;15.90;7.93;;;;;;;-1.47;60.77;102289.69;1787005;79;21049;-61
2020/12/06 05:37:37;;;;;;;16.10;7.43;;;;;;;-1.49;60.78;102292.99;1816623;78;21008;-61
2020/12/06 05:40:12;;;;;;;16.73;7.37;;;;;;;-1.48;60.39;102294.67;1816520;79;20941;-60
2020/12/06 05:42:41;;;;;;;15.50;7.10;;;;;;;-1.54;60.55;102296.08;1816148;79;21475;-61
2020/12/06 05:45:11;;;;;;;11.33;5.73;;;;;;;-1.50;60.61;102294.83;1816551;79;23310;-59
2020/12/06 05:47:38;;;;;;;13.20;6.30;;;;;;;-1.46;60.55;102288.72;1816398;79;21021;-59
2020/12/06 05:50:06;;;;;;;11.27;5.57;;;;;;;-1.46;60.56;102297.58;1816491;79;21001;-65
2020/12/06 05:52:35;;;;;;;9.77;5.13;;;;;;;-1.42;60.56;102298.99;1816438;79;20926;-61
2020/12/06 05:55:03;;;;;;;10.70;4.77;;;;;;;-1.34;60.44;102299.12;1816497;79;20901;-63
2020/12/06 05:57:33;;;;;;;11.90;4.90;;;;;;;-1.31;60.37;102307.36;1816165;78;21257;-58
2020/12/06 06:00:02;;;;;;;10.57;4.40;;;;;;;-1.28;60.15;102310.23;1816423;79;21499;-59
2020/12/06 06:02:32;;;;;;;9.33;4.97;;;;;;;-1.26;59.86;102307.78;1812403;79;21056;-59
2020/12/06 06:05:04;;;;;;;8.90;4.40;;;;;;;-1.25;59.65;102309.47;1811596;79;21064;-59
2020/12/06 06:07:31;;;;;;;8.40;3.73;;;;;;;-1.20;59.38;102311.72;1786802;79;20917;-59
2020/12/06 06:10:04;;;;;;;6.83;3.30;;;;;;;-1.14;59.13;102314.66;1736582;79;21261;-62
2020/12/06 06:12:38;;;;;;;9.27;4.67;;;;;;;-1.20;59.01;102316.56;1810968;79;20918;-61
2020/12/06 06:15:07;;;;;;;6.83;2.90;;;;;;;-1.27;59.08;102319.42;1811310;79;21139;-62
2020/12/06 06:17:34;;;;;;;8.70;4.60;;;;;;;-1.25;58.97;102318.81;1811028;79;21416;-63
2020/12/06 06:20:04;;;;;;;9.40;3.67;;;;;;;-1.29;58.83;102320.06;1811049;78;20945;-61
2020/12/06 06:22:42;;;;;;;9.30;4.47;;;;;;;-1.31;58.87;102323.38;1786180;79;21209;-63
2020/12/06 06:25:11;;;;;;;7.57;3.87;;;;;;;-1.33;58.98;102328.00;1810986;78;20973;-60
2020/12/06 06:27:40;;;;;;;5.87;3.10;;;;;;;-1.38;59.01;102325.74;1811045;78;21562;-60
2020/12/06 06:30:10;;;;;;;10.13;3.80;;;;;;;-1.44;59.04;102327.64;1811063;79;20985;-58
2020/12/06 06:32:38;;;;;;;6.40;3.27;;;;;;;-1.49;59.37;102323.70;1811169;79;21563;-59
2020/12/06 06:35:08;;;;;;;7.13;3.03;;;;;;;-1.52;59.49;102325.30;1811027;79;21257;-59
2020/12/06 06:37:37;;;;;;;7.17;3.60;;;;;;;-1.54;59.63;102331.28;1811037;79;21590;-60
2020/12/06 06:40:07;;;;;;;9.47;4.50;;;;;;;-1.59;59.70;102331.69;1811108;79;21463;-59
2020/12/06 06:42:37;;;;;;;5.97;3.10;;;;;;;-1.61;59.77;102327.83;1810978;79;21143;-62
2020/12/06 06:45:11;;;;;;;8.27;4.17;;;;;;;-1.54;60.01;102328.11;1811078;78;21115;-61
2020/12/06 06:47:40;;;;;;;4.17;2.17;;;;;;;-1.41;59.87;102326.04;1811186;79;22023;-61
2020/12/06 06:50:10;;;;;;;4.90;2.40;;;;;;;-1.33;59.67;102323.50;1810924;79;21013;-64
2020/12/06 06:52:40;;;;;;;7.00;2.83;;;;;;;-1.32;59.50;102329.68;1811024;79;21016;-63
2020/12/06 06:55:08;;;;;;;4.27;2.30;;;;;;;-1.08;59.54;102326.12;1810936;79;21822;-64
2020/12/06 06:57:40;;;;;;;2.77;1.73;;;;;;;-0.77;58.75;102335.31;1811012;79;20973;-61
2020/12/06 07:00:07;;;;;;;6.47;3.30;;;;;;;-0.44;57.90;102338.02;1810888;79;22099;-62
2020/12/06 07:02:40;;;;;;;6.35;2.55;;;;;;;-0.05;57.25;102333.39;1810698;79;21601;-62
2020/12/06 07:05:20;;;;;;;5.92;3.02;;;;;;;0.35;56.45;102322.81;1786874;79;21587;-61
2020/12/06 07:07:50;;;;;;;8.30;3.22;;;;;;;0.57;55.21;102330.95;1811025;79;20988;-62
2020/12/06 07:10:22;;;;;;;6.33;3.58;;;;;;;0.91;54.83;102327.58;1811066;78;21004;-61
2020/12/06 07:12:57;;;;;;;6.65;4.08;;;;;;;1.35;54.11;102323.61;1811011;79;21370;-63
2020/12/06 07:15:26;;;;;;;5.92;3.42;;;;;;;1.91;53.19;102324.46;1811262;79;21171;-62
2020/12/06 07:17:56;;;;;;;7.65;3.60;;;;;;;2.54;51.96;102321.87;1811082;79;20929;-62
2020/12/06 07:20:25;;;;;;;5.83;4.20;;;;;;;2.85;50.17;102324.28;1811099;79;21460;-61
2020/12/06 07:22:54;;;;;;;8.75;5.97;;;;;;;3.00;49.45;102321.77;1810973;79;20936;-62
2020/12/06 07:25:23;;;;;;;8.43;3.80;;;;;;;3.06;49.20;102318.41;1810930;79;21369;-62
2020/12/06 07:27:51;;;;;;;4.72;3.05;;;;;;;3.18;48.85;102319.41;1786419;79;20937;-61
2020/12/06 07:30:20;;;;;;;8.55;3.95;;;;;;;3.30;48.23;102326.98;1810970;79;20949;-63
2020/12/06 07:32:47;;;;;;;5.22;2.77;;;;;;;3.60;47.97;102323.27;1810983;79;21016;-62
2020/12/06 07:35:15;;;;;;;5.50;2.65;;;;;;;4.02;47.06;102325.67;1810989;78;21107;-65
2020/12/06 07:37:45;;;;;;;5.10;2.50;;;;;;;4.48;45.44;102329.84;1811047;79;22372;-60
2020/12/06 07:40:14;;;;;;;4.83;2.67;;;;;;;4.69;44.61;102320.62;1810989;79;21152;-64
2020/12/06 07:42:41;;;;;;;3.75;2.55;;;;;;;4.95;43.75;102324.83;1810893;79;21056;-62
2020/12/06 07:45:09;;;;;;;5.58;2.37;;;;;;;5.14;43.05;102326.20;1810885;79;21013;-62
2020/12/06 07:47:37;;;;;;;3.02;1.90;;;;;;;5.38;42.68;102327.36;1810316;78;21170;-60
2020/12/06 07:50:06;;;;;;;2.95;1.85;;;;;;;5.72;40.80;102334.94;1811389;77;21517;-65
2020/12/06 07:52:36;;;;;;;3.70;1.95;;;;;;;5.77;40.23;102328.14;1825822;77;21500;-63
2020/12/06 07:55:09;;;;;;;3.98;1.95;;;;;;;5.92;40.40;102337.12;1834452;77;21014;-63
2020/12/06 07:57:43;;;;;;;3.27;2.22;;;;;;;6.07;39.26;102349.30;1806590;77;21566;-68
2020/12/06 08:00:16;;;;;;;3.77;1.85;;;;;;;6.07;39.17;102335.78;1810389;77;21547;-59
2020/12/06 08:02:59;;;;;;;5.05;2.08;;;;;;;6.10;39.18;102336.25;1813632;77;21367;-64
2020/12/06 08:05:28;;;;;;;2.87;1.65;;;;;;;6.37;38.93;102335.24;1804684;77;21511;-64
2020/12/06 08:07:59;;;;;;;6.72;1.87;;;;;;;6.76;38.00;102333.01;1817693;77;21037;-65
2020/12/06 08:10:30;;;;;;;3.75;1.92;;;;;;;6.82;37.90;102330.56;1813768;77;20946;-62
2020/12/06 08:12:58;;;;;;;5.35;2.20;;;;;;;6.98;37.55;102330.31;1815735;77;21144;-62
2020/12/06 08:15:28;;;;;;;2.62;1.95;;;;;;;7.08;36.72;102329.99;1826920;77;21125;-64
2020/12/06 08:17:56;;;;;;;2.55;1.52;;;;;;;6.96;36.85;102334.58;1815301;77;21091;-59
2020/12/06 08:20:26;;;;;;;2.75;1.90;;;;;;;6.55;36.59;102322.16;1821302;77;21123;-63
2020/12/06 08:22:57;;;;;;;2.20;1.47;;;;;;;6.11;36.82;102327.11;1783563;80;20957;-62
2020/12/06 08:25:32;;;;;;;2.42;1.20;;;;;;;5.59;37.45;102329.34;1801696;79;21068;-64
2020/12/06 08:28:02;;;;;;;3.05;1.67;;;;;;;5.06;38.37;102326.27;1751471;80;21438;-62
2020/12/06 08:30:31;;;;;;;3.72;2.45;;;;;;;4.48;42.15;102333.05;1751188;80;21043;-62
2020/12/06 08:33:03;;;;;;;4.65;1.95;;;;;;;4.16;42.12;102339.77;1750777;82;20963;-59
2020/12/06 08:35:43;;;;;;;2.33;1.57;;;;;;;3.80;42.77;102339.85;1803978;79;21603;-61
2020/12/06 08:38:28;;;;;;;4.00;2.47;;;;;;;3.38;43.18;102342.27;1804751;79;21575;-62
2020/12/06 08:41:09;;;;;;;5.28;1.92;;;;;;;2.90;44.17;102332.36;1804786;79;21367;-61
2020/12/06 08:43:57;;;;;;;5.00;2.30;;;;;;;2.44;45.00;102334.10;1802735;79;21213;-60
2020/12/06 08:46:26;;;;;;;3.12;1.87;;;;;;;2.07;45.76;102337.12;1793637;79;21696;-60
2020/12/06 08:49:00;;;;;;;4.20;1.37;;;;;;;1.74;46.40;102335.62;1751689;80;21609;-61
2020/12/06 08:54:14;;;;;;;2.50;1.40;;;;;;;1.28;47.16;102338.98;1865028;76;22212;-61
2020/12/06 08:56:43;;;;;;;2.42;1.40;;;;;;;1.07;48.08;102333.12;1823171;77;20934;-60
2020/12/06 08:59:16;;;;;;;2.72;1.35;;;;;;;1.00;48.38;102334.21;1822649;77;21345;-64
2020/12/06 09:01:55;;;;;;;3.08;1.40;;;;;;;0.92;48.26;102326.11;1825717;77;20934;-64
2020/12/06 09:04:23;;;;;;;2.70;1.17;;;;;;;0.75;48.35;102337.15;1826415;77;20996;-62
2020/12/06 09:06:53;;;;;;;5.17;1.70;;;;;;;0.59;48.90;102332.13;1821955;77;20917;-61
2020/12/06 09:09:21;;;;;;;4.37;1.92;;;;;;;0.47;49.36;102330.17;1821689;77;20940;-59
2020/12/06 09:11:53;;;;;;;2.92;1.32;;;;;;;0.40;50.00;102331.24;1794278;79;21374;-62
2020/12/06 09:14:23;;;;;;;2.62;1.52;;;;;;;0.38;49.85;102331.91;1801921;79;20972;-64
2020/12/06 09:16:51;;;;;;;2.77;1.42;;;;;;;0.40;49.95;102329.06;1782725;80;20937;-63
2020/12/06 09:19:20;;;;;;;4.22;1.57;;;;;;;0.33;49.83;102332.01;1781689;80;21068;-60
2020/12/06 09:21:49;;;;;;;2.70;1.62;;;;;;;0.22;49.99;102329.88;1782018;80;21105;-62
2020/12/06 09:24:17;;;;;;;2.47;1.22;;;;;;;0.22;50.49;102335.23;1753362;80;21284;-63
2020/12/06 09:26:46;;;;;;;3.02;1.70;;;;;;;0.22;50.16;102337.91;1781997;79;20997;-64
2020/12/06 09:29:13;;;;;;;3.20;1.50;;;;;;;0.23;50.19;102326.70;1781984;80;21058;-61
2020/12/06 09:31:42;;;;;;;4.80;2.15;;;;;;;0.27;50.09;102323.24;1754106;80;21541;-62
2020/12/06 09:34:11;;;;;;;3.55;1.42;;;;;;;0.31;50.06;102328.16;1783708;79;20949;-61
2020/12/06 09:36:43;;;;;;;7.08;1.42;;;;;;;0.33;50.19;102324.81;1792323;79;22359;-62
2020/12/06 09:39:11;;;;;;;2.42;0.95;;;;;;;0.35;50.04;102321.48;1787963;80;20945;-61
2020/12/06 09:41:45;;;;;;;3.02;1.30;;;;;;;0.33;50.12;102316.78;1787967;80;21001;-64
2020/12/06 09:44:15;;;;;;;3.97;1.50;;;;;;;0.27;50.20;102312.03;1787932;80;20890;-62
2020/12/06 09:46:43;;;;;;;3.98;1.82;;;;;;;0.22;50.37;102329.88;1788011;79;21510;-62
2020/12/06 09:49:11;;;;;;;2.70;1.07;;;;;;;0.15;50.58;102311.41;1787944;80;21411;-63
2020/12/06 09:51:42;;;;;;;2.67;1.52;;;;;;;0.13;50.65;102317.38;1787878;80;20957;-62
2020/12/06 09:54:12;;;;;;;2.12;1.37;;;;;;;0.20;50.49;102311.80;1779198;80;20914;-62
2020/12/06 09:56:41;;;;;;;3.42;1.90;;;;;;;0.25;50.14;102312.66;1777882;80;20938;-63
2020/12/06 09:59:09;;;;;;;3.67;1.75;;;;;;;0.29;50.32;102303.84;1778070;80;21556;-63
2020/12/06 10:01:37;;;;;;;2.53;1.30;;;;;;;0.35;50.75;102300.06;1777938;80;21381;-63
2020/12/06 10:04:05;;;;;;;3.37;1.40;;;;;;;0.37;50.65;102295.41;1777728;80;21549;-63
2020/12/06 10:06:34;;;;;;;3.60;1.45;;;;;;;0.39;50.44;102288.56;1777438;80;21417;-63
2020/12/06 10:09:03;;;;;;;2.87;0.83;;;;;;;0.39;50.49;102289.40;1777356;80;20942;-62
2020/12/06 10:11:31;;;;;;;3.50;1.40;;;;;;;0.43;50.29;102291.29;1790255;80;20928;-64
2020/12/06 10:13:59;;;;;;;3.42;1.47;;;;;;;0.46;50.21;102283.80;1777282;80;21187;-63
2020/12/06 10:16:27;;;;;;;5.53;1.40;;;;;;;0.50;49.95;102281.14;1777287;80;20982;-63
2020/12/06 10:18:56;;;;;;;3.35;1.25;;;;;;;0.54;49.97;102291.56;1777535;80;21532;-62
2020/12/06 10:21:24;;;;;;;3.85;1.65;;;;;;;0.52;50.20;102289.05;1777935;79;20993;-62
2020/12/06 10:23:52;;;;;;;3.10;1.35;;;;;;;0.50;50.03;102285.66;1793574;79;20942;-60
2020/12/06 10:26:20;;;;;;;3.25;1.85;;;;;;;0.50;49.92;102285.66;1790184;79;21205;-62
2020/12/06 10:28:48;;;;;;;3.92;1.72;;;;;;;0.52;50.09;102287.70;1800182;79;21583;-65
2020/12/06 10:31:19;;;;;;;3.85;1.98;;;;;;;0.54;50.17;102287.05;1795446;79;21044;-62
2020/12/06 10:33:46;;;;;;;2.20;1.02;;;;;;;0.55;50.00;102282.03;1789970;79;21607;-62
2020/12/06 10:36:16;;;;;;;5.43;1.77;;;;;;;0.50;49.88;102274.95;1790360;79;21021;-57
2020/12/06 10:38:44;;;;;;;1.40;0.98;;;;;;;0.49;49.49;102279.96;1791165;79;21547;-62
2020/12/06 10:41:12;;;;;;;4.17;1.80;;;;;;;0.49;49.89;102266.07;1788893;79;21049;-63
2020/12/06 10:43:42;;;;;;;1.98;1.60;;;;;;;0.54;49.42;102266.95;1765435;79;21177;-60
2020/12/06 10:46:11;;;;;;;3.55;1.20;;;;;;;0.58;48.77;102261.64;1774297;80;20954;-66
2020/12/06 10:48:39;;;;;;;3.08;1.37;;;;;;;0.61;48.40;102275.22;1776713;79;21105;-62
2020/12/06 10:51:07;;;;;;;5.55;1.60;;;;;;;0.55;48.97;102265.11;1776629;80;21164;-62
2020/12/06 10:53:34;;;;;;;3.90;1.42;;;;;;;0.59;49.77;102267.84;1781067;80;21123;-63
2020/12/06 10:56:02;;;;;;;4.35;1.52;;;;;;;0.67;50.02;102264.75;1775662;79;20973;-64
2020/12/06 10:58:30;;;;;;;3.57;1.37;;;;;;;0.79;49.30;102270.70;1813546;78;21032;-64
2020/12/06 11:00:58;;;;;;;4.62;1.52;;;;;;;0.92;49.12;102270.33;1813851;79;21115;-65
2020/12/06 11:03:27;;;;;;;2.30;1.45;;;;;;;1.06;48.83;102261.70;1813904;79;21208;-64
2020/12/06 11:05:55;;;;;;;22.95;5.58;;;;;;;1.18;48.51;102254.27;1812252;79;21139;-59
2020/12/06 11:08:24;;;;;;;6.80;2.27;;;;;;;1.25;48.91;102250.80;1813824;79;20977;-61
2020/12/06 11:10:52;;;;;;;6.90;2.40;;;;;;;1.32;48.84;102243.45;1813656;79;21020;-60
2020/12/06 11:13:22;;;;;;;33.95;7.22;;;;;;;1.37;48.75;102245.16;1813858;79;20945;-60
2020/12/06 11:15:50;;;;;;;19.85;5.90;;;;;;;1.44;49.22;102244.38;1813898;78;22334;-61
2020/12/06 11:18:18;;;;;;;15.55;4.62;;;;;;;1.50;49.28;102237.03;1813877;79;21025;-61
2020/12/06 11:20:47;;;;;;;3.17;1.50;;;;;;;1.57;49.05;102249.30;1813811;79;21005;-60
2020/12/06 11:23:16;;;;;;;3.27;1.80;;;;;;;1.59;47.56;102243.30;1813891;79;21045;-58
2020/12/06 11:25:45;;;;;;;6.22;2.12;;;;;;;1.54;47.42;102245.61;1813885;79;20930;-62
2020/12/06 11:28:13;;;;;;;7.33;3.55;;;;;;;1.54;47.80;102243.77;1802329;79;21277;-64
2020/12/06 11:30:41;;;;;;;6.92;3.05;;;;;;;1.59;48.40;102245.97;1791229;79;21147;-61
2020/12/06 11:33:11;;;;;;;3.52;2.37;;;;;;;1.65;47.98;102248.02;1799887;78;21159;-62
2020/12/06 11:35:39;;;;;;;6.03;2.85;;;;;;;1.69;47.95;102241.33;1787051;79;21724;-60
2020/12/06 11:38:07;;;;;;;5.47;2.62;;;;;;;1.70;47.78;102241.66;1794109;79;21618;-64
2020/12/06 11:40:36;;;;;;;5.83;3.20;;;;;;;1.67;47.82;102239.29;1795469;79;22222;-63